Terminal Aerodrome Forecast
Issued by NWS Charleston, WV

Current Version | Previous Version | Graphics & Text | Print | Product List | Glossary On
Versions: 1 2 3 4 5 6 7 8 9 10 11 12 13 14 15 16 17 18 19 20 21 22 23 24 25 26 27 28
000
FTUS41 KRLX 312359 CCA
TAFHTS
TAF COR
KHTS 312359Z 0100/0124 21005KT P6SM VCTS BKN050CB
     FM010100 32006KT P6SM VCSH BKN035
     FM010400 36004KT 4SM BR BKN020
     FM010900 36003KT 3SM BR OVC015
     FM011100 01002KT 2SM BR OVC010
     FM011300 02005KT 6SM BR OVC025
     FM011800 02006KT P6SM VCTS OVC035CB=

USA.gov is the U.S. government's official web portal to all federal, state and local government web resources and services.